Relevés horaires Eggishorn (Suisse)


Relevés horaires à Eggishorn - Dimanche 08 Déc. 2019
Heure UTC1 Température [°C] Vent [km/h] Hum. [%] Pres.4 [hPa] Visi. [Km] Nébu. [octa] Préc.5 [mm] Cond.
2m. Res. Ros. Dir.2 Vit. Moy. Raf.3
23:00 -5.8 -15.4 -6.4 O 42.6 -- 68.5 96 700(-1.7/3h) -- -- -- --
22:00 -5.2 -13 -7.6 O 27.8 -- 55.6 83 700(-1.1/3h) -- -- -- --
21:00 -5.3 -13.1 -10.6 O 27.8 -- 64.8 66 700(-1.0/3h) -- -- -- --
20:00 -3.9 -12.1 -11.5 OSO 35.2 -- 64.8 55 700(-1.0/3h) -- -- -- --
19:00 -3.7 -11.9 -13.2 O 35.2 -- 57.4 48 700(-1.1/3h) -- -- -- --
18:00 -3.1 -11.1 -12.9 O 35.2 -- 63.0 47 700(-1.1/3h) -- -- -- --
17:00 -2.4 -10.3 -13.7 O 37.0 -- 55.6 41 700(-1.2/3h) -- -- -- --
16:00 -2.2 -9.9 -11.5 O 35.2 -- 53.7 49 700(-1.0/3h) -- -- -- --
15:00 -1.8 -9.2 -10.1 O 33.3 -- 51.9 53 700(-1.4/3h) -- -- -- --
14:00 -1.4 -8.8 -9.0 O 35.2 -- 51.9 56 700(-1.6/3h) -- -- -- --
13:00 -1.0 -7.9 -9.1 O 31.5 -- 51.9 54 700(-1.9/3h) -- -- -- --
12:00 -1.4 -8.1 -10.7 O 27.8 -- 59.3 49 700(-1.1/3h) -- -- -- --
11:00 -1.2 -7.3 -11.5 O 24.1 -- 48.2 45 700(-0.5/3h) -- -- -- --
10:00 -0.8 -7.3 -11.8 O 27.8 -- 42.6 43 700(0.1/3h) -- -- -- --
09:00 -1.4 -7.8 -14.6 O 25.9 -- 42.6 36 700(0.5/3h) -- -- -- --
08:00 -1.4 -8.1 -15.3 O 27.8 -- 42.6 34 700(0.3/3h) -- -- -- --
07:00 -2.3 -8.7 -17.7 O 24.1 -- 40.7 29 700(0.1/3h) -- -- -- --
06:00 -3.1 -11.1 -18.7 O 35.2 -- 44.4 29 700(-0.7/3h) -- -- -- --
05:00 -2.2 -8.9 -19.6 OSO 25.9 -- 31.5 25 700(-0.8/3h) -- -- -- --
04:00 -2.0 -7.5 -17.4 NO 18.5 -- 25.9 30 700(-0.5/3h) -- -- -- --
03:00 -2.0 -7.5 -20.6 O 18.5 -- 31.5 22 700(-0.3/3h) -- -- -- --
02:00 -1.8 -7.3 -19.2 NNO 18.5 -- 27.8 25 700(-0.4/3h) -- -- -- --
01:00 -2.2 -8.1 -20.8 NNO 20.4 -- 24.1 22 700(-0.5/3h) -- -- -- --
00:00 -2.1 -5.6 -24.4 O 9.3 -- 37.0 16 700(0.1/3h) -- -- -- --

1 Coordinated Universal Time. Actuellement il est 22:00 locale et 20:00 UTC.

2 Le vent souffle depuis la direction indiquée vers la direction oposée.

3 Les rafales max. sont disponible 40 min après l'heure du relevé.

4 Pour les stations d'altitude (plus de 600m) le géopotentiel du niveau le plus proche de la pression obligatoire est indiqué.

5 Les stations disposant d'un diffuseur peuvent indiquer "trace". Cela signifie que des précipitations ont touchés le sol mais que la quantité est inférieure à 0.1 mm.

Copyright

Les données affichées sur cette page sont la propriété exclusive de Météo Suisse.

Récapitulatif de la journée
Température [°C] Vent [km/h] Ensoleillement4 [h] Precipitations totale5 [mm] Pression [Hpa]
Min1 Max.2 Moy.3 Max. Min Max.
-6.6 -0.4 0 68.5 6 h 54 min 0 700.0 700.0

1 Température minimale relevée entre 18:00 UTC la veille et 18:00 UTC le jour donné.

2 Température maximale relevée entre 06:00 UTC le jour donné et 06:00 UTC le lendemain.

3 Vent moyen de la journée basé sur les relevés horaires.

4 Ensoleillement en heures relevé entre 06:00 UTC la veille et 06:00 UTC le jour donné.

5 Précipitations totales tombées entre 06:00 UTC la jour donné et 06:00 UTC le lendemain.

Graphiques horaires